Time;durP1;ratioP1;P1;durP2;ratioP2;P2;SDS_P1;SDS_P2;PMS_P1;PMS_P2;Temp;Humidity;BMP_temperature;BMP_pressure;BME280_temperature;BME280_humidity;BME280_pressure;Samples;Min_cycle;Max_cycle;Signal;HPM_P1;HPM_P2
2021/10/21 00:00:49;;;;;;;3.13;2.13;;;;;;;;;;5065232;28;20226;-64
2021/10/21 00:03:23;;;;;;;3.47;2.57;;;;;;;;;;5064706;28;20208;-63
2021/10/21 00:05:55;;;;;;;2.67;2.13;;;;;;;;;;5064414;28;20198;-63
2021/10/21 00:08:27;;;;;;;2.70;2.30;;;;;;;;;;5070168;28;20233;-64
2021/10/21 00:11:17;;;;;;;3.43;2.40;;;;;;;;;;5084753;28;20206;-63
2021/10/21 00:13:48;;;;;;;3.63;2.30;;;;;;;;;;5054416;28;20197;-64
2021/10/21 00:16:19;;;;;;;3.10;2.10;;;;;;;;;;5067826;28;20233;-64
2021/10/21 00:18:51;;;;;;;2.90;2.40;;;;;;;;;;5068026;28;20190;-63
2021/10/21 00:21:32;;;;;;;3.03;2.20;;;;;;;;;;5050353;28;20524;-64
2021/10/21 00:24:01;;;;;;;4.17;2.70;;;;;;;;;;5083290;28;20228;-64
2021/10/21 00:26:31;;;;;;;3.47;2.20;;;;;;;;;;5090059;28;20742;-63
2021/10/21 00:29:04;;;;;;;2.30;2.10;;;;;;;;;;5088697;28;20217;-64
2021/10/21 00:31:35;;;;;;;2.97;2.23;;;;;;;;;;5089030;28;20197;-64
2021/10/21 00:34:07;;;;;;;2.47;2.00;;;;;;;;;;5106844;28;20208;-63
2021/10/21 00:36:39;;;;;;;2.93;2.30;;;;;;;;;;5091145;28;20216;-63
2021/10/21 00:39:10;;;;;;;5.37;2.47;;;;;;;;;;5084398;28;20638;-64
2021/10/21 00:41:40;;;;;;;3.57;2.13;;;;;;;;;;5090724;27;20667;-64
2021/10/21 00:44:14;;;;;;;3.07;2.20;;;;;;;;;;5103644;28;20642;-63
2021/10/21 00:46:45;;;;;;;2.77;2.23;;;;;;;;;;5091261;28;20205;-63
2021/10/21 00:49:17;;;;;;;2.20;2.00;;;;;;;;;;5094515;28;20205;-64
2021/10/21 00:51:49;;;;;;;2.83;2.10;;;;;;;;;;5087448;28;20666;-64
2021/10/21 00:54:21;;;;;;;2.33;1.73;;;;;;;;;;5076783;28;20216;-63
2021/10/21 00:56:49;;;;;;;2.40;2.00;;;;;;;;;;5074708;28;20213;-63
2021/10/21 00:59:21;;;;;;;2.50;1.67;;;;;;;;;;5085722;28;20208;-63
2021/10/21 01:01:53;;;;;;;2.27;1.50;;;;;;;;;;5092718;28;20574;-63
2021/10/21 01:04:22;;;;;;;3.13;1.90;;;;;;;;;;5089266;28;20228;-63
2021/10/21 01:06:53;;;;;;;2.23;1.70;;;;;;;;;;5108670;28;20200;-64
2021/10/21 01:09:23;;;;;;;3.80;2.10;;;;;;;;;;5086083;28;20211;-63
2021/10/21 01:11:55;;;;;;;3.07;1.63;;;;;;;;;;5089151;28;20695;-63
2021/10/21 01:14:27;;;;;;;2.20;1.80;;;;;;;;;;5089860;28;20207;-63
2021/10/21 01:16:59;;;;;;;2.80;1.70;;;;;;;;;;5083719;28;20249;-63
2021/10/21 01:19:32;;;;;;;1.90;1.80;;;;;;;;;;5089653;28;20192;-63
2021/10/21 01:22:04;;;;;;;1.83;1.63;;;;;;;;;;5088704;28;20962;-63
2021/10/21 01:24:33;;;;;;;2.07;1.70;;;;;;;;;;5083031;28;20228;-63
2021/10/21 01:27:04;;;;;;;1.73;1.63;;;;;;;;;;5073111;28;20218;-63
2021/10/21 01:29:37;;;;;;;2.00;1.80;;;;;;;;;;5076569;28;20666;-63
2021/10/21 01:32:08;;;;;;;1.97;1.30;;;;;;;;;;5072776;28;20256;-63
2021/10/21 01:34:39;;;;;;;1.87;1.40;;;;;;;;;;5071139;28;20198;-63
2021/10/21 01:37:10;;;;;;;1.37;1.17;;;;;;;;;;5081812;28;20582;-63
2021/10/21 01:39:41;;;;;;;1.90;1.53;;;;;;;;;;5067971;28;20287;-63
2021/10/21 01:42:14;;;;;;;2.03;1.40;;;;;;;;;;5065980;28;20197;-63
2021/10/21 01:44:45;;;;;;;2.43;1.30;;;;;;;;;;5069407;28;20624;-63
2021/10/21 01:47:16;;;;;;;1.47;1.20;;;;;;;;;;5067596;28;20213;-63
2021/10/21 01:49:45;;;;;;;1.80;1.17;;;;;;;;;;5048420;28;20205;-63
2021/10/21 01:52:15;;;;;;;1.37;1.13;;;;;;;;;;5068364;28;20681;-63
2021/10/21 01:54:50;;;;;;;2.67;1.33;;;;;;;;;;5067492;28;20209;-63
2021/10/21 01:57:32;;;;;;;1.27;1.17;;;;;;;;;;5067061;28;20304;-63
2021/10/21 02:00:01;;;;;;;1.00;0.90;;;;;;;;;;5066261;28;20193;-63
2021/10/21 02:02:32;;;;;;;5.53;1.20;;;;;;;;;;5071123;28;20194;-63
2021/10/21 02:05:02;;;;;;;1.13;1.03;;;;;;;;;;5066298;28;20695;-63
2021/10/21 02:07:35;;;;;;;2.23;1.13;;;;;;;;;;5053951;28;20209;-63
2021/10/21 02:10:07;;;;;;;1.80;1.37;;;;;;;;;;5068133;28;20244;-63
2021/10/21 02:12:36;;;;;;;1.60;1.10;;;;;;;;;;5068414;28;20247;-63
2021/10/21 02:15:11;;;;;;;3.00;1.20;;;;;;;;;;5066058;28;20259;-63
2021/10/21 02:17:54;;;;;;;2.87;1.50;;;;;;;;;;5046377;28;20265;-63
2021/10/21 02:20:29;;;;;;;1.43;1.10;;;;;;;;;;5069955;28;20199;-63
2021/10/21 02:23:05;;;;;;;2.87;1.37;;;;;;;;;;5079346;28;20209;-63
2021/10/21 02:25:36;;;;;;;1.33;0.90;;;;;;;;;;5066543;28;20639;-63
2021/10/21 02:28:12;;;;;;;1.50;0.90;;;;;;;;;;5063787;28;20794;-63
2021/10/21 02:30:44;;;;;;;1.67;1.10;;;;;;;;;;5069643;28;20206;-63
2021/10/21 02:33:14;;;;;;;2.37;0.90;;;;;;;;;;5065779;28;20217;-62
2021/10/21 02:35:45;;;;;;;1.40;0.93;;;;;;;;;;5069697;28;20206;-63
2021/10/21 02:38:18;;;;;;;0.93;0.70;;;;;;;;;;5065331;28;20213;-63
2021/10/21 02:40:49;;;;;;;1.77;0.83;;;;;;;;;;5051408;28;20218;-63
2021/10/21 02:43:22;;;;;;;1.53;0.90;;;;;;;;;;5063732;28;20194;-62
2021/10/21 02:46:00;;;;;;;1.03;0.77;;;;;;;;;;5051414;28;20666;-63
2021/10/21 02:48:40;;;;;;;1.63;0.80;;;;;;;;;;5070377;28;20540;-63
2021/10/21 02:51:11;;;;;;;1.77;0.90;;;;;;;;;;5048324;28;20197;-63
2021/10/21 02:53:41;;;;;;;1.60;0.83;;;;;;;;;;5065549;28;20763;-63
2021/10/21 02:56:16;;;;;;;2.50;1.10;;;;;;;;;;5067874;28;20205;-63
2021/10/21 02:58:46;;;;;;;2.73;0.97;;;;;;;;;;5067603;28;20220;-63
2021/10/21 03:01:17;;;;;;;2.80;1.00;;;;;;;;;;5063496;28;20634;-63
2021/10/21 03:03:49;;;;;;;1.33;0.80;;;;;;;;;;5052459;28;20704;-62
2021/10/21 03:06:23;;;;;;;1.43;0.87;;;;;;;;;;5070740;28;20201;-63
2021/10/21 03:08:54;;;;;;;2.87;1.10;;;;;;;;;;5071163;28;20201;-63
2021/10/21 03:11:34;;;;;;;1.87;0.90;;;;;;;;;;5065413;28;20197;-62
2021/10/21 03:14:05;;;;;;;1.63;0.90;;;;;;;;;;5054069;28;20229;-63
2021/10/21 03:16:38;;;;;;;1.07;0.70;;;;;;;;;;5064180;28;20224;-63
2021/10/21 03:19:12;;;;;;;2.50;1.10;;;;;;;;;;5084266;28;20197;-63
2021/10/21 03:21:40;;;;;;;1.83;0.73;;;;;;;;;;5072751;28;20189;-63
2021/10/21 03:24:09;;;;;;;1.93;0.77;;;;;;;;;;5094160;28;20256;-63
2021/10/21 03:26:39;;;;;;;1.20;0.60;;;;;;;;;;5085162;28;20276;-63
2021/10/21 03:29:19;;;;;;;3.40;0.90;;;;;;;;;;5080290;28;20225;-63
2021/10/21 03:31:51;;;;;;;2.30;0.77;;;;;;;;;;5100487;28;20184;-63
2021/10/21 03:34:23;;;;;;;2.03;0.70;;;;;;;;;;5103373;28;20220;-63
2021/10/21 03:36:55;;;;;;;1.37;0.70;;;;;;;;;;5090767;28;20197;-63
2021/10/21 03:39:27;;;;;;;1.10;0.67;;;;;;;;;;5079938;28;20189;-63
2021/10/21 03:41:57;;;;;;;1.67;0.80;;;;;;;;;;5090723;28;20222;-63
2021/10/21 03:44:29;;;;;;;1.27;1.00;;;;;;;;;;5091026;28;20201;-63
2021/10/21 03:46:59;;;;;;;1.80;0.90;;;;;;;;;;5082742;28;20661;-63
2021/10/21 03:49:34;;;;;;;2.57;0.70;;;;;;;;;;5088225;28;20792;-63
2021/10/21 03:52:13;;;;;;;2.07;0.90;;;;;;;;;;5073646;28;20206;-63
2021/10/21 03:54:43;;;;;;;1.20;0.60;;;;;;;;;;5092712;28;20193;-63
2021/10/21 03:57:27;;;;;;;2.97;0.93;;;;;;;;;;5103221;28;20298;-63
2021/10/21 03:59:59;;;;;;;2.83;1.00;;;;;;;;;;5089059;28;20685;-62
2021/10/21 04:02:28;;;;;;;1.03;0.60;;;;;;;;;;5090513;28;20189;-63
2021/10/21 04:05:02;;;;;;;2.37;1.00;;;;;;;;;;5087080;28;20679;-63
2021/10/21 04:07:33;;;;;;;0.90;0.50;;;;;;;;;;5085596;28;20224;-63
2021/10/21 04:10:07;;;;;;;1.77;0.80;;;;;;;;;;5100496;28;20652;-63
2021/10/21 04:12:35;;;;;;;2.30;0.60;;;;;;;;;;5089486;28;20202;-63
2021/10/21 04:15:07;;;;;;;1.53;0.70;;;;;;;;;;5091152;28;20212;-63
2021/10/21 04:17:41;;;;;;;2.63;0.80;;;;;;;;;;5065864;28;20229;-63
2021/10/21 04:20:14;;;;;;;1.53;0.63;;;;;;;;;;5086255;28;20192;-63
2021/10/21 04:22:49;;;;;;;0.70;0.47;;;;;;;;;;5090065;28;20204;-62
2021/10/21 04:25:18;;;;;;;1.50;0.70;;;;;;;;;;5083595;28;20193;-63
2021/10/21 04:27:55;;;;;;;1.43;0.60;;;;;;;;;;5064438;28;20205;-63
2021/10/21 04:30:24;;;;;;;2.30;0.97;;;;;;;;;;5066443;28;20236;-63
2021/10/21 04:32:55;;;;;;;1.60;0.60;;;;;;;;;;5072607;28;20635;-63
2021/10/21 04:35:27;;;;;;;2.70;0.90;;;;;;;;;;5059379;28;20199;-63
2021/10/21 04:37:59;;;;;;;2.20;0.73;;;;;;;;;;5072281;28;20527;-63
2021/10/21 04:40:36;;;;;;;1.90;0.63;;;;;;;;;;5060304;28;20218;-63
2021/10/21 04:43:06;;;;;;;2.77;0.70;;;;;;;;;;5071660;28;20193;-63
2021/10/21 04:45:38;;;;;;;2.30;0.80;;;;;;;;;;5065349;28;20248;-65
2021/10/21 04:48:07;;;;;;;1.60;0.80;;;;;;;;;;5072347;28;20198;-64
2021/10/21 04:50:37;;;;;;;3.37;1.00;;;;;;;;;;5067860;28;20212;-64
2021/10/21 04:53:08;;;;;;;4.60;1.20;;;;;;;;;;5062507;28;20657;-63
2021/10/21 04:55:54;;;;;;;4.53;0.90;;;;;;;;;;5072887;28;20186;-64
2021/10/21 04:58:25;;;;;;;5.83;1.60;;;;;;;;;;5082380;28;20237;-63
2021/10/21 05:00:58;;;;;;;6.37;1.50;;;;;;;;;;5071884;28;20265;-64
2021/10/21 05:03:34;;;;;;;3.67;1.10;;;;;;;;;;5057014;28;20241;-63
2021/10/21 05:06:05;;;;;;;5.20;1.53;;;;;;;;;;5068296;28;20197;-64
2021/10/21 05:08:38;;;;;;;5.53;1.50;;;;;;;;;;5068974;28;20639;-63
2021/10/21 05:11:10;;;;;;;5.37;1.67;;;;;;;;;;5069762;28;20201;-63
2021/10/21 05:13:55;;;;;;;6.33;1.37;;;;;;;;;;5061814;28;20651;-63
2021/10/21 05:16:25;;;;;;;3.80;1.70;;;;;;;;;;5066691;28;20217;-63
2021/10/21 05:18:55;;;;;;;7.30;1.63;;;;;;;;;;5066041;28;20229;-63
2021/10/21 05:21:26;;;;;;;2.97;1.10;;;;;;;;;;5066791;28;20207;-63
2021/10/21 05:23:56;;;;;;;2.83;1.30;;;;;;;;;;5067817;28;20232;-62
2021/10/21 05:26:27;;;;;;;2.03;1.10;;;;;;;;;;5073415;28;20202;-63
2021/10/21 05:29:01;;;;;;;3.03;1.20;;;;;;;;;;5062876;28;20227;-63
2021/10/21 05:31:33;;;;;;;2.90;1.07;;;;;;;;;;5069853;28;20210;-63
2021/10/21 05:34:03;;;;;;;2.80;1.37;;;;;;;;;;5066085;28;20218;-63
2021/10/21 05:36:34;;;;;;;4.43;1.00;;;;;;;;;;5069563;28;20201;-63
2021/10/21 05:39:06;;;;;;;2.20;1.00;;;;;;;;;;5083889;28;20271;-63
2021/10/21 05:41:37;;;;;;;2.87;0.90;;;;;;;;;;5042522;28;20319;-63
2021/10/21 05:44:07;;;;;;;3.27;1.30;;;;;;;;;;5056599;28;20217;-63
2021/10/21 05:46:40;;;;;;;4.67;1.00;;;;;;;;;;5055888;28;20198;-63
2021/10/21 05:49:12;;;;;;;2.33;0.80;;;;;;;;;;5054777;28;21846;-63
2021/10/21 05:51:40;;;;;;;3.20;1.00;;;;;;;;;;5060422;28;20743;-63
2021/10/21 05:54:13;;;;;;;7.67;0.80;;;;;;;;;;5057808;28;20205;-63
2021/10/21 05:56:44;;;;;;;3.23;0.73;;;;;;;;;;5077193;28;20210;-63
2021/10/21 05:59:14;;;;;;;3.27;0.73;;;;;;;;;;5050483;28;20203;-63
2021/10/21 06:01:42;;;;;;;1.07;0.67;;;;;;;;;;5071677;28;20198;-64
2021/10/21 06:04:13;;;;;;;3.53;0.73;;;;;;;;;;5050839;28;20218;-64
2021/10/21 06:06:44;;;;;;;1.73;0.77;;;;;;;;;;5084124;28;20277;-65
2021/10/21 06:09:20;;;;;;;1.47;0.63;;;;;;;;;;5068963;28;20659;-65
2021/10/21 06:11:56;;;;;;;3.80;0.87;;;;;;;;;;5083866;28;20603;-65
2021/10/21 06:14:30;;;;;;;1.77;0.60;;;;;;;;;;5079660;28;20217;-65
2021/10/21 06:16:58;;;;;;;1.40;0.67;;;;;;;;;;5078997;28;20285;-64
2021/10/21 06:19:29;;;;;;;1.90;0.70;;;;;;;;;;5028875;28;20225;-64
2021/10/21 06:22:09;;;;;;;1.27;0.53;;;;;;;;;;5077193;28;20201;-65
2021/10/21 06:24:38;;;;;;;2.37;0.60;;;;;;;;;;5061921;28;20243;-65
2021/10/21 06:27:11;;;;;;;2.33;0.90;;;;;;;;;;5085227;28;20287;-65
2021/10/21 06:29:41;;;;;;;2.63;0.80;;;;;;;;;;5063974;28;20267;-65
2021/10/21 06:32:13;;;;;;;1.10;0.60;;;;;;;;;;5083900;28;20251;-65
2021/10/21 06:34:46;;;;;;;2.30;0.77;;;;;;;;;;5066236;28;20189;-65
2021/10/21 06:37:20;;;;;;;2.30;0.70;;;;;;;;;;5081639;28;20571;-65
2021/10/21 06:39:54;;;;;;;2.33;1.10;;;;;;;;;;5068590;28;20213;-65
2021/10/21 06:42:25;;;;;;;5.93;1.10;;;;;;;;;;5066569;28;20287;-65
2021/10/21 06:44:57;;;;;;;2.17;0.63;;;;;;;;;;5034582;28;20573;-65
2021/10/21 06:47:27;;;;;;;2.20;0.90;;;;;;;;;;5068549;28;20198;-66
2021/10/21 06:50:00;;;;;;;1.60;0.70;;;;;;;;;;5075488;28;20197;-65
2021/10/21 06:52:32;;;;;;;1.73;0.90;;;;;;;;;;5077907;28;20212;-65
2021/10/21 06:55:02;;;;;;;2.93;1.00;;;;;;;;;;5072224;28;20553;-64
2021/10/21 06:57:45;;;;;;;3.13;1.17;;;;;;;;;;5073511;28;20209;-66
2021/10/21 07:00:17;;;;;;;3.10;0.90;;;;;;;;;;5080712;28;20911;-64
2021/10/21 07:02:48;;;;;;;2.27;0.70;;;;;;;;;;5067921;28;20213;-65
2021/10/21 07:05:26;;;;;;;1.43;0.57;;;;;;;;;;5056691;28;20690;-64
2021/10/21 07:07:57;;;;;;;2.47;0.77;;;;;;;;;;5071441;28;20204;-65
2021/10/21 07:10:30;;;;;;;1.63;0.90;;;;;;;;;;5062126;28;20241;-65
2021/10/21 07:13:03;;;;;;;2.13;0.83;;;;;;;;;;5067052;28;20204;-65
2021/10/21 07:16:06;;;;;;;2.43;0.83;;;;;;;;;;5057602;28;20655;-65
2021/10/21 07:18:36;;;;;;;2.63;1.23;;;;;;;;;;5065229;28;20237;-65
2021/10/21 07:21:05;;;;;;;2.20;0.90;;;;;;;;;;5071686;28;20205;-65
2021/10/21 07:23:33;;;;;;;1.70;0.70;;;;;;;;;;5070252;28;20694;-65
2021/10/21 07:26:02;;;;;;;2.37;0.90;;;;;;;;;;5093884;28;20227;-65
2021/10/21 07:28:30;;;;;;;1.40;0.70;;;;;;;;;;5073020;28;20265;-65
2021/10/21 07:31:02;;;;;;;2.10;0.93;;;;;;;;;;5082087;28;20248;-66
2021/10/21 07:33:31;;;;;;;2.07;1.10;;;;;;;;;;5094189;28;20196;-66
2021/10/21 07:36:02;;;;;;;1.60;0.70;;;;;;;;;;5094654;28;20189;-64
2021/10/21 07:38:35;;;;;;;1.90;0.60;;;;;;;;;;5094433;28;20213;-64
2021/10/21 07:41:27;;;;;;;2.33;0.90;;;;;;;;;;5088095;28;20558;-64
2021/10/21 07:44:02;;;;;;;1.73;0.90;;;;;;;;;;5090716;28;20197;-64
2021/10/21 07:46:35;;;;;;;3.47;0.80;;;;;;;;;;5088949;28;20231;-64
2021/10/21 07:49:08;;;;;;;2.77;0.93;;;;;;;;;;5097639;28;20653;-65
2021/10/21 07:51:38;;;;;;;2.13;0.77;;;;;;;;;;5071601;28;20220;-64
2021/10/21 07:54:13;;;;;;;3.47;1.00;;;;;;;;;;5088613;28;20245;-64
2021/10/21 07:56:47;;;;;;;1.97;0.97;;;;;;;;;;5069928;28;20252;-65
2021/10/21 07:59:15;;;;;;;1.60;0.80;;;;;;;;;;5078397;28;20911;-65
2021/10/21 08:01:43;;;;;;;1.60;0.73;;;;;;;;;;5086015;28;20201;-65
2021/10/21 08:04:16;;;;;;;1.83;0.80;;;;;;;;;;5090884;28;20200;-64
2021/10/21 08:06:45;;;;;;;2.87;0.90;;;;;;;;;;5087926;28;20198;-66
2021/10/21 08:09:15;;;;;;;2.27;1.10;;;;;;;;;;5091864;28;20658;-66
2021/10/21 08:11:50;;;;;;;3.77;0.83;;;;;;;;;;5071818;28;20219;-65
2021/10/21 08:14:21;;;;;;;1.47;0.63;;;;;;;;;;5083221;28;20213;-65
2021/10/21 08:16:51;;;;;;;2.17;0.57;;;;;;;;;;5094129;28;20830;-66
2021/10/21 08:19:19;;;;;;;2.50;1.07;;;;;;;;;;5088231;28;20237;-66
2021/10/21 08:21:48;;;;;;;2.33;0.90;;;;;;;;;;5097639;28;20200;-66
2021/10/21 08:24:21;;;;;;;2.93;0.90;;;;;;;;;;5085169;28;20583;-66
2021/10/21 08:26:55;;;;;;;1.40;0.70;;;;;;;;;;5091332;28;20212;-65
2021/10/21 08:29:31;;;;;;;2.30;0.93;;;;;;;;;;5090143;28;20193;-65
2021/10/21 08:32:06;;;;;;;2.57;0.80;;;;;;;;;;5089049;28;20205;-65
2021/10/21 08:34:48;;;;;;;2.60;1.07;;;;;;;;;;5091267;28;20209;-65
2021/10/21 08:37:24;;;;;;;1.93;0.80;;;;;;;;;;5099544;28;20196;-64
2021/10/21 08:39:53;;;;;;;1.73;1.00;;;;;;;;;;5086584;28;20718;-64
2021/10/21 08:42:23;;;;;;;1.53;0.97;;;;;;;;;;5092537;28;20196;-65
2021/10/21 08:44:56;;;;;;;1.73;0.87;;;;;;;;;;5074775;28;20267;-64
2021/10/21 08:47:28;;;;;;;2.57;0.93;;;;;;;;;;5098939;28;20196;-64
2021/10/21 08:49:59;;;;;;;2.23;0.90;;;;;;;;;;5090358;28;20622;-64
2021/10/21 08:52:26;;;;;;;1.97;0.70;;;;;;;;;;5095582;28;20190;-65
2021/10/21 08:54:56;;;;;;;2.30;0.80;;;;;;;;;;5089629;28;20221;-65
2021/10/21 08:57:26;;;;;;;1.57;0.70;;;;;;;;;;5094625;28;20295;-65
2021/10/21 08:59:58;;;;;;;2.53;1.00;;;;;;;;;;5092494;28;20213;-65
2021/10/21 09:03:05;;;;;;;3.07;1.20;;;;;;;;;;5089794;28;20196;-64
2021/10/21 09:05:49;;;;;;;2.73;1.00;;;;;;;;;;5085538;28;20201;-64
2021/10/21 09:08:29;;;;;;;3.00;1.00;;;;;;;;;;5072200;28;20710;-65
2021/10/21 09:11:11;;;;;;;1.53;0.70;;;;;;;;;;5097187;28;20280;-64
2021/10/21 09:13:42;;;;;;;1.47;0.80;;;;;;;;;;5088590;28;20193;-64
2021/10/21 09:16:11;;;;;;;1.93;1.03;;;;;;;;;;5095409;28;20185;-64
2021/10/21 09:18:45;;;;;;;2.37;0.90;;;;;;;;;;5088866;28;20227;-64
2021/10/21 09:21:32;;;;;;;1.27;0.70;;;;;;;;;;5067346;28;20201;-65
2021/10/21 09:24:21;;;;;;;1.87;0.80;;;;;;;;;;5104656;27;20370;-64
2021/10/21 09:27:10;;;;;;;2.60;0.83;;;;;;;;;;5078752;28;20638;-65
2021/10/21 09:29:59;;;;;;;2.20;0.80;;;;;;;;;;5081443;28;20286;-65
2021/10/21 09:32:32;;;;;;;1.53;0.70;;;;;;;;;;5087283;28;20187;-64
2021/10/21 09:35:04;;;;;;;2.00;1.00;;;;;;;;;;5079556;28;20220;-65
2021/10/21 09:37:36;;;;;;;1.90;1.00;;;;;;;;;;5092531;28;20198;-63
2021/10/21 09:40:19;;;;;;;2.37;1.00;;;;;;;;;;5057896;28;20312;-64
2021/10/21 09:42:59;;;;;;;3.13;0.90;;;;;;;;;;5078302;27;20223;-64
2021/10/21 09:45:40;;;;;;;2.70;1.20;;;;;;;;;;5075681;28;20200;-65
2021/10/21 09:48:25;;;;;;;1.63;0.93;;;;;;;;;;5090336;28;20200;-65
2021/10/21 09:51:08;;;;;;;1.90;0.90;;;;;;;;;;5090452;28;20756;-64
2021/10/21 09:53:39;;;;;;;3.20;1.03;;;;;;;;;;5085914;28;20203;-64
2021/10/21 09:56:09;;;;;;;1.70;0.73;;;;;;;;;;5094837;28;20201;-64
2021/10/21 09:58:42;;;;;;;2.83;0.70;;;;;;;;;;5098089;27;20196;-64
2021/10/21 10:01:15;;;;;;;3.77;1.20;;;;;;;;;;5086738;28;20212;-64
2021/10/21 10:03:47;;;;;;;2.83;1.07;;;;;;;;;;5091490;28;20201;-63
2021/10/21 10:06:19;;;;;;;2.23;1.00;;;;;;;;;;5084983;28;20664;-64
2021/10/21 10:08:49;;;;;;;2.17;0.93;;;;;;;;;;5100862;28;20220;-64
2021/10/21 10:11:21;;;;;;;2.03;0.90;;;;;;;;;;5068823;28;20200;-65
2021/10/21 10:13:53;;;;;;;3.27;1.20;;;;;;;;;;5096066;28;20215;-65
2021/10/21 10:16:26;;;;;;;1.80;0.90;;;;;;;;;;5071654;28;20208;-64
2021/10/21 10:19:06;;;;;;;2.20;0.70;;;;;;;;;;5095572;28;20684;-64
2021/10/21 10:21:42;;;;;;;2.43;0.93;;;;;;;;;;5071789;28;20197;-65
2021/10/21 10:24:14;;;;;;;1.47;0.77;;;;;;;;;;5088153;28;20233;-65
2021/10/21 10:26:57;;;;;;;2.80;1.10;;;;;;;;;;5083480;28;20193;-65
2021/10/21 10:29:41;;;;;;;1.87;1.00;;;;;;;;;;5079126;28;20216;-65
2021/10/21 10:32:43;;;;;;;2.17;1.00;;;;;;;;;;5089371;28;20197;-65
2021/10/21 10:35:16;;;;;;;1.63;0.90;;;;;;;;;;5089031;28;20506;-64
2021/10/21 10:38:02;;;;;;;1.27;0.53;;;;;;;;;;5089154;28;20654;-64
2021/10/21 10:40:48;;;;;;;1.57;1.17;;;;;;;;;;5070708;28;20228;-65
2021/10/21 10:43:41;;;;;;;2.63;1.10;;;;;;;;;;5079616;28;20287;-65
2021/10/21 10:46:52;;;;;;;0.97;0.50;;;;;;;;;;5089396;28;20309;-65
2021/10/21 10:49:45;;;;;;;2.07;0.90;;;;;;;;;;5067979;28;20199;-65
2021/10/21 10:52:19;;;;;;;3.50;0.87;;;;;;;;;;5089414;28;20619;-65
2021/10/21 10:54:52;;;;;;;2.70;0.63;;;;;;;;;;5075397;28;20213;-65
2021/10/21 10:57:29;;;;;;;2.10;0.90;;;;;;;;;;5092996;28;20628;-64
2021/10/21 11:00:33;;;;;;;1.67;0.70;;;;;;;;;;5088619;28;20307;-64
2021/10/21 11:03:07;;;;;;;2.03;0.60;;;;;;;;;;5088094;28;20630;-65
2021/10/21 11:05:53;;;;;;;1.80;0.90;;;;;;;;;;5078450;28;20200;-64
2021/10/21 11:08:47;;;;;;;3.33;0.80;;;;;;;;;;5070678;28;20193;-64
2021/10/21 11:11:37;;;;;;;0.90;0.50;;;;;;;;;;5085499;28;20239;-63
2021/10/21 11:14:09;;;;;;;1.03;0.67;;;;;;;;;;5088243;28;20204;-64
2021/10/21 11:16:48;;;;;;;3.47;0.83;;;;;;;;;;5088244;28;20201;-64
2021/10/21 11:19:42;;;;;;;1.60;0.60;;;;;;;;;;5099955;28;20221;-64
2021/10/21 11:22:21;;;;;;;1.77;0.70;;;;;;;;;;5086684;28;20185;-65
2021/10/21 11:24:53;;;;;;;1.30;0.90;;;;;;;;;;5088780;28;20294;-65
2021/10/21 11:27:38;;;;;;;1.33;0.60;;;;;;;;;;5086003;28;20592;-64
2021/10/21 11:30:12;;;;;;;1.87;0.70;;;;;;;;;;5087497;28;20213;-64
2021/10/21 11:33:06;;;;;;;1.20;0.50;;;;;;;;;;5068767;28;20189;-64
2021/10/21 11:35:36;;;;;;;1.40;0.60;;;;;;;;;;5083486;28;20266;-64
2021/10/21 11:38:14;;;;;;;0.80;0.60;;;;;;;;;;5086889;28;20204;-64
2021/10/21 11:40:54;;;;;;;1.37;0.60;;;;;;;;;;5094108;28;20212;-64
2021/10/21 11:43:26;;;;;;;0.80;0.50;;;;;;;;;;5071624;28;20224;-64
2021/10/21 11:46:01;;;;;;;1.57;0.50;;;;;;;;;;5094690;28;20249;-65
2021/10/21 11:48:39;;;;;;;1.93;0.67;;;;;;;;;;5102887;28;20235;-65
2021/10/21 11:51:17;;;;;;;1.70;0.67;;;;;;;;;;5097613;28;20188;-65
2021/10/21 11:54:07;;;;;;;1.20;0.60;;;;;;;;;;5106224;27;20275;-65
2021/10/21 11:56:39;;;;;;;1.03;0.50;;;;;;;;;;5088655;28;20698;-65
2021/10/21 11:59:12;;;;;;;1.07;0.53;;;;;;;;;;5093867;28;20210;-65
2021/10/21 12:01:41;;;;;;;1.67;0.80;;;;;;;;;;5106383;28;20199;-65
2021/10/21 12:04:16;;;;;;;1.87;0.60;;;;;;;;;;5091316;28;20232;-65
2021/10/21 12:06:49;;;;;;;1.53;0.63;;;;;;;;;;5099869;28;20216;-65
2021/10/21 12:09:20;;;;;;;1.37;0.77;;;;;;;;;;5089383;28;20638;-65
2021/10/21 12:12:01;;;;;;;1.30;0.67;;;;;;;;;;5090219;28;20658;-65
2021/10/21 12:14:46;;;;;;;1.00;0.63;;;;;;;;;;5092187;28;20290;-64
2021/10/21 12:17:17;;;;;;;0.90;0.60;;;;;;;;;;5079589;28;20250;-64
2021/10/21 12:19:54;;;;;;;1.40;0.63;;;;;;;;;;5093821;28;20262;-64
2021/10/21 12:22:28;;;;;;;1.27;0.50;;;;;;;;;;5086633;28;20868;-65
2021/10/21 12:25:09;;;;;;;1.17;0.80;;;;;;;;;;5074008;28;20229;-64
2021/10/21 12:27:40;;;;;;;1.03;0.70;;;;;;;;;;5070112;28;20197;-64
2021/10/21 12:30:11;;;;;;;2.07;0.73;;;;;;;;;;5051729;28;20283;-64
2021/10/21 12:32:43;;;;;;;2.00;0.90;;;;;;;;;;5068640;28;20193;-65
2021/10/21 12:35:15;;;;;;;1.20;0.63;;;;;;;;;;5070337;28;20202;-65
2021/10/21 12:37:53;;;;;;;1.17;0.70;;;;;;;;;;5070366;28;20647;-65
2021/10/21 12:40:24;;;;;;;1.80;0.80;;;;;;;;;;5069383;28;20216;-64
2021/10/21 12:43:12;;;;;;;2.30;0.90;;;;;;;;;;5052169;28;20213;-64
2021/10/21 12:45:45;;;;;;;1.13;0.77;;;;;;;;;;5068175;28;20199;-64
2021/10/21 12:48:27;;;;;;;3.60;1.10;;;;;;;;;;5072334;28;20209;-64
2021/10/21 12:51:07;;;;;;;1.27;0.60;;;;;;;;;;5068317;28;20237;-63
2021/10/21 12:53:52;;;;;;;1.97;0.70;;;;;;;;;;5068498;28;20677;-63
2021/10/21 12:56:26;;;;;;;1.17;0.70;;;;;;;;;;5071006;28;20190;-63
2021/10/21 12:59:06;;;;;;;1.43;0.60;;;;;;;;;;5068759;28;20204;-64
2021/10/21 13:01:55;;;;;;;0.97;0.57;;;;;;;;;;5081140;28;20205;-63
2021/10/21 13:04:41;;;;;;;1.60;0.80;;;;;;;;;;5070160;28;20562;-63
2021/10/21 13:07:18;;;;;;;1.27;0.50;;;;;;;;;;5070879;28;20214;-65
2021/10/21 13:09:49;;;;;;;1.07;0.50;;;;;;;;;;5070461;28;20266;-65
2021/10/21 13:12:21;;;;;;;2.10;0.57;;;;;;;;;;5065267;28;20204;-66
2021/10/21 13:14:56;;;;;;;1.73;0.70;;;;;;;;;;5055198;28;20201;-66
2021/10/21 13:17:27;;;;;;;0.83;0.50;;;;;;;;;;5067163;28;20404;-65
2021/10/21 13:20:01;;;;;;;0.83;0.40;;;;;;;;;;5067707;28;20229;-66
2021/10/21 13:22:31;;;;;;;1.03;0.63;;;;;;;;;;5069123;28;20201;-64
2021/10/21 13:25:08;;;;;;;0.90;0.50;;;;;;;;;;5068899;28;20272;-65
2021/10/21 13:27:45;;;;;;;2.83;0.60;;;;;;;;;;5064511;28;20221;-67
2021/10/21 13:30:17;;;;;;;0.63;0.40;;;;;;;;;;5071065;28;20201;-64
2021/10/21 13:32:52;;;;;;;0.97;0.40;;;;;;;;;;5046160;28;20206;-64
2021/10/21 13:35:23;;;;;;;2.10;0.73;;;;;;;;;;5067215;28;20208;-64
2021/10/21 13:37:54;;;;;;;2.00;0.60;;;;;;;;;;5054667;28;20201;-64
2021/10/21 13:40:28;;;;;;;0.50;0.50;;;;;;;;;;5051819;28;20643;-65
2021/10/21 13:43:01;;;;;;;0.90;0.50;;;;;;;;;;5052555;28;20193;-65
2021/10/21 13:45:40;;;;;;;0.77;0.50;;;;;;;;;;5050872;28;20205;-66
2021/10/21 13:48:16;;;;;;;0.77;0.43;;;;;;;;;;5050423;28;20197;-65
2021/10/21 13:50:49;;;;;;;0.60;0.53;;;;;;;;;;5069943;28;20212;-66
2021/10/21 13:53:27;;;;;;;0.63;0.40;;;;;;;;;;5066817;28;20202;-66
2021/10/21 13:55:59;;;;;;;0.70;0.50;;;;;;;;;;5057338;28;20232;-65
2021/10/21 13:58:32;;;;;;;0.83;0.40;;;;;;;;;;5054194;28;20206;-66
2021/10/21 14:01:05;;;;;;;1.73;0.67;;;;;;;;;;5047621;28;20224;-65
2021/10/21 14:03:34;;;;;;;0.77;0.43;;;;;;;;;;5067119;28;20190;-65
2021/10/21 14:06:07;;;;;;;0.57;0.50;;;;;;;;;;5068564;28;20209;-66
2021/10/21 14:08:37;;;;;;;1.40;0.40;;;;;;;;;;5049134;28;20212;-65
2021/10/21 14:11:11;;;;;;;0.57;0.40;;;;;;;;;;5067621;28;20207;-65
2021/10/21 14:13:54;;;;;;;0.60;0.40;;;;;;;;;;5070803;28;20280;-66
2021/10/21 14:16:25;;;;;;;0.47;0.43;;;;;;;;;;5050724;28;20634;-66
2021/10/21 14:18:56;;;;;;;1.03;0.50;;;;;;;;;;5050745;28;20206;-66
2021/10/21 14:21:27;;;;;;;0.63;0.50;;;;;;;;;;5059003;28;20255;-65
2021/10/21 14:24:00;;;;;;;0.57;0.43;;;;;;;;;;5067495;28;20265;-65
2021/10/21 14:26:32;;;;;;;0.77;0.53;;;;;;;;;;5069291;28;20196;-66
2021/10/21 14:29:04;;;;;;;0.77;0.50;;;;;;;;;;5065828;28;20224;-66
2021/10/21 14:31:34;;;;;;;1.03;0.70;;;;;;;;;;5052752;28;20202;-66
2021/10/21 14:34:07;;;;;;;1.07;0.50;;;;;;;;;;5083332;28;20213;-66
2021/10/21 14:36:38;;;;;;;1.37;0.40;;;;;;;;;;5068949;28;20607;-65
2021/10/21 14:39:10;;;;;;;1.13;0.60;;;;;;;;;;5051465;28;20197;-65
2021/10/21 14:41:43;;;;;;;1.17;0.33;;;;;;;;;;5047650;28;22362;-65
2021/10/21 14:44:14;;;;;;;1.03;0.63;;;;;;;;;;5065147;28;20217;-65
2021/10/21 14:46:46;;;;;;;1.07;0.60;;;;;;;;;;5054900;28;20692;-66
2021/10/21 14:49:18;;;;;;;1.27;0.50;;;;;;;;;;5060744;28;20198;-66
2021/10/21 14:51:51;;;;;;;0.60;0.40;;;;;;;;;;5055670;28;20205;-65
2021/10/21 14:54:20;;;;;;;1.37;0.60;;;;;;;;;;5071598;28;20251;-65
2021/10/21 14:56:55;;;;;;;1.13;0.50;;;;;;;;;;5048412;28;20263;-71
2021/10/21 14:59:26;;;;;;;0.93;0.40;;;;;;;;;;5053343;28;20194;-66
2021/10/21 15:01:55;;;;;;;0.77;0.47;;;;;;;;;;5075733;28;20431;-65
2021/10/21 15:04:26;;;;;;;1.10;0.50;;;;;;;;;;5070232;28;20718;-66
2021/10/21 15:23:59;;;;;;;1.20;0.60;;;;;;;;;;5014985;28;20222;-65
2021/10/21 15:26:30;;;;;;;1.13;0.50;;;;;;;;;;5030113;28;20210;-65
2021/10/21 15:29:00;;;;;;;1.80;0.90;;;;;;;;;;5028786;28;20211;-65
2021/10/21 15:31:29;;;;;;;1.63;0.73;;;;;;;;;;5025668;28;20214;-65
2021/10/21 15:34:00;;;;;;;1.53;0.50;;;;;;;;;;5022830;28;20668;-65
2021/10/21 15:36:28;;;;;;;1.73;0.73;;;;;;;;;;5032337;28;20202;-65
2021/10/21 15:39:01;;;;;;;2.23;0.70;;;;;;;;;;5033759;28;20218;-65
2021/10/21 15:41:32;;;;;;;1.37;0.60;;;;;;;;;;5026080;28;20217;-66